SCCF

Details ICAO SCCF (CJC)
Name EL LOA
Region Chile
Timezone America/Santiago (UTC-4.0)
Plans Departing 25
Arriving 40
Stats Elevation 7,543 ft / 2,299 m (AMSL)
Location -22.498175° -68.903575°
Runways 1
Magnetic Variation 5.364° W
Sunrise 2018-06-24 11:16:36 UTC / 2018-06-24 07:16:36 Local
Sunset 2018-06-24 22:01:56 UTC / 2018-06-24 18:01:56 Local
Advertisement - Login to hide

Runways

ID Width Length Bearing (true) Bearing (mag) Surface Threshold Offset Overrun Length
10 98 ft / 30 m 9,455 ft / 2,882 m 93.61° 98.97° Asphalt 0 ft / 0 m 100 ft / 30 m
28 98 ft / 30 m 9,455 ft / 2,882 m 273.60° 278.96° Asphalt 0 ft / 0 m 100 ft / 30 m

Map

Weather


0- 5 10 15 20 25 30 35+ Temperature / ° C

Clouds and Precipitation
Forecast for 2018-06-24 12:00 UTC. Updated 5 hours ago

Ground ~20,000 ft ~40,000 ft Winds

METAR

SCCF 241400Z 10011KT CAVOK 14/M10 Q1027

TAF

TAF SCCF 241030Z 2412/2512 11018KT CAVOK TX21/2418Z TN00/2506Z BECMG 2414/2415 11007KT BECMG 2416/2418 27018KT BECMG 2423/2501 23010KT BECMG 2503/2505 11014KT

Frequencies

Tower 118.70 MHz CALAMA TWR
Approach 120.90 MHz CALAMA APP
Warning: Do not use this data for real-world aviation or navigation. No guarantee of current accuracy is given.